Time;durP1;ratioP1;P1;durP2;ratioP2;P2;SDS_P1;SDS_P2;PMS_P1;PMS_P2;Temp;Humidity;BMP_temperature;BMP_pressure;BME280_temperature;BME280_humidity;BME280_pressure;Samples;Min_cycle;Max_cycle;Signal;HPM_P1;HPM_P2
2022/09/04 00:01:13;;;;;;;5.80;5.30;;;23.30;59.80;;;;;;5076484;28;20433;-69
2022/09/04 00:03:47;;;;;;;5.97;5.47;;;23.20;59.50;;;;;;5077346;28;20499;-69
2022/09/04 00:06:19;;;;;;;5.10;4.70;;;23.20;60.10;;;;;;5076123;28;20429;-69
2022/09/04 00:09:02;;;;;;;6.27;5.77;;;23.20;60.10;;;;;;5076375;28;20433;-70
2022/09/04 00:11:40;;;;;;;7.00;6.30;;;23.10;60.00;;;;;;5076250;28;20432;-70
2022/09/04 00:14:13;;;;;;;6.43;5.90;;;23.10;60.30;;;;;;5075875;28;20469;-70
2022/09/04 00:16:44;;;;;;;5.50;4.93;;;23.10;61.00;;;;;;5076371;28;20429;-70
2022/09/04 00:19:20;;;;;;;7.53;6.27;;;23.00;62.00;;;;;;5075970;28;20433;-70
2022/09/04 00:21:51;;;;;;;6.50;5.90;;;23.00;61.30;;;;;;5076560;28;20443;-70
2022/09/04 00:24:21;;;;;;;6.63;6.00;;;23.00;61.30;;;;;;5076506;28;20477;-69
2022/09/04 00:26:56;;;;;;;6.23;5.00;;;23.00;61.40;;;;;;5075618;28;20803;-70
2022/09/04 00:29:35;;;;;;;5.10;4.70;;;22.90;61.40;;;;;;5075812;28;20440;-70
2022/09/04 00:32:13;;;;;;;7.00;6.30;;;22.80;61.40;;;;;;5075753;28;20429;-70
2022/09/04 00:34:52;;;;;;;6.40;5.80;;;22.80;61.40;;;;;;5076595;28;20449;-70
2022/09/04 00:37:23;;;;;;;5.90;5.40;;;22.80;61.80;;;;;;5075359;28;20465;-70
2022/09/04 00:39:58;;;;;;;5.10;4.67;;;22.70;61.90;;;;;;5076207;28;20491;-70
2022/09/04 00:42:52;;;;;;;6.07;5.50;;;22.70;61.80;;;;;;5075445;28;20473;-70
2022/09/04 00:45:53;;;;;;;6.30;5.80;;;22.70;61.90;;;;;;5075277;28;20911;-70
2022/09/04 00:48:42;;;;;;;5.63;5.13;;;22.60;62.20;;;;;;5075736;28;20425;-70
2022/09/04 00:51:19;;;;;;;6.20;5.70;;;22.60;62.50;;;;;;5075905;28;20777;-70
2022/09/04 00:54:23;;;;;;;6.60;5.80;;;22.60;62.90;;;;;;5077054;28;20521;-69
2022/09/04 00:57:12;;;;;;;6.60;5.83;;;22.50;63.00;;;;;;5076336;28;20481;-70
2022/09/04 00:59:59;;;;;;;5.50;5.00;;;22.40;62.80;;;;;;5076725;28;20452;-70
2022/09/04 01:02:46;;;;;;;6.53;5.57;;;22.40;63.20;;;;;;5076947;28;20464;-70
2022/09/04 01:05:25;;;;;;;6.27;5.67;;;22.40;63.20;;;;;;5075619;28;20491;-70
2022/09/04 01:08:00;;;;;;;6.43;5.90;;;22.30;63.00;;;;;;5076242;28;20429;-70
2022/09/04 01:10:35;;;;;;;7.13;6.43;;;22.30;63.10;;;;;;5075661;28;20435;-69
2022/09/04 01:13:10;;;;;;;6.97;6.33;;;22.20;63.50;;;;;;5076412;28;20504;-70
2022/09/04 01:15:43;;;;;;;7.97;7.20;;;22.20;64.60;;;;;;5077785;28;20433;-70
2022/09/04 01:18:16;;;;;;;8.80;7.90;;;22.20;64.80;;;;;;5075822;28;20934;-69
2022/09/04 01:20:55;;;;;;;9.40;8.60;;;22.20;65.20;;;;;;5076408;28;20434;-69
2022/09/04 01:23:36;;;;;;;9.77;8.70;;;22.10;65.90;;;;;;5077587;28;20491;-70
2022/09/04 01:26:12;;;;;;;10.53;8.30;;;22.10;66.40;;;;;;5077046;28;20460;-70
2022/09/04 01:28:49;;;;;;;8.30;7.60;;;22.00;66.80;;;;;;5077490;28;20520;-70
2022/09/04 01:31:24;;;;;;;7.53;6.83;;;22.00;66.70;;;;;;5077083;28;20429;-69
2022/09/04 01:34:06;;;;;;;8.57;7.87;;;22.00;66.60;;;;;;5076710;28;20468;-69
2022/09/04 01:36:43;;;;;;;8.77;7.17;;;22.00;67.30;;;;;;5077930;28;20798;-69
2022/09/04 01:39:09;;;;;;;8.17;7.37;;;21.90;67.10;;;;;;5077248;28;20440;-69
2022/09/04 01:41:42;;;;;;;7.23;6.57;;;21.80;66.90;;;;;;5077114;28;20453;-69
2022/09/04 01:44:11;;;;;;;6.27;5.77;;;21.80;67.60;;;;;;5077562;28;20491;-69
2022/09/04 01:46:46;;;;;;;6.00;5.50;;;21.80;67.90;;;;;;5077250;28;20448;-70
2022/09/04 01:49:25;;;;;;;8.20;6.50;;;21.80;68.10;;;;;;5076311;28;20859;-69
2022/09/04 01:52:02;;;;;;;6.67;5.97;;;21.70;67.60;;;;;;5078632;28;20433;-69
2022/09/04 01:54:48;;;;;;;7.43;6.37;;;21.70;68.30;;;;;;5077160;28;20429;-69
2022/09/04 01:57:28;;;;;;;6.60;5.97;;;21.80;68.00;;;;;;5077792;28;20440;-69
2022/09/04 02:00:04;;;;;;;6.23;5.63;;;21.80;68.00;;;;;;5078480;28;20528;-70
2022/09/04 02:02:37;;;;;;;5.90;5.37;;;21.80;68.20;;;;;;5079471;28;20563;-69
2022/09/04 02:05:14;;;;;;;5.57;4.97;;;21.80;68.40;;;;;;5077321;28;20484;-69
2022/09/04 02:07:46;;;;;;;7.83;6.17;;;21.70;68.40;;;;;;5078777;28;20432;-69
2022/09/04 02:10:22;;;;;;;6.10;5.47;;;21.70;68.50;;;;;;5078834;28;20433;-70
2022/09/04 02:13:01;;;;;;;5.97;5.47;;;21.70;68.90;;;;;;5073518;28;20464;-70
2022/09/04 02:15:38;;;;;;;7.10;6.50;;;21.70;69.10;;;;;;5073489;28;20478;-69
2022/09/04 02:18:13;;;;;;;6.17;5.60;;;21.70;69.30;;;;;;5074433;28;20904;-69
2022/09/04 02:20:49;;;;;;;6.10;5.50;;;21.60;69.60;;;;;;5073464;28;20433;-70
2022/09/04 02:23:23;;;;;;;7.67;6.10;;;21.60;69.90;;;;;;5073292;28;20464;-69
2022/09/04 02:25:57;;;;;;;6.40;5.80;;;21.60;70.20;;;;;;5073369;28;20807;-69
2022/09/04 02:28:38;;;;;;;6.47;5.87;;;21.60;70.00;;;;;;5073118;28;20444;-69
2022/09/04 02:31:15;;;;;;;8.17;6.43;;;21.60;70.20;;;;;;5073139;28;20779;-70
2022/09/04 02:33:47;;;;;;;6.83;6.23;;;21.50;70.10;;;;;;5073423;28;20469;-69
2022/09/04 02:36:19;;;;;;;7.87;7.07;;;21.50;70.30;;;;;;5073310;28;20441;-69
2022/09/04 02:38:55;;;;;;;8.43;6.17;;;21.50;70.30;;;;;;5073107;28;20471;-69
2022/09/04 02:41:31;;;;;;;6.27;5.70;;;21.50;70.10;;;;;;5074067;28;20437;-69
2022/09/04 02:44:24;;;;;;;6.97;6.27;;;21.50;69.80;;;;;;5073923;28;20563;-71
2022/09/04 02:47:01;;;;;;;6.63;5.87;;;21.50;69.50;;;;;;5073542;28;20429;-70
2022/09/04 02:49:37;;;;;;;6.67;6.00;;;21.50;69.70;;;;;;5073227;28;20429;-70
2022/09/04 02:52:17;;;;;;;6.53;5.93;;;21.50;69.50;;;;;;5073090;28;20425;-69
2022/09/04 02:55:03;;;;;;;6.07;5.57;;;21.40;69.30;;;;;;5073247;28;20460;-69
2022/09/04 02:57:40;;;;;;;5.70;4.83;;;21.40;69.30;;;;;;5073205;28;20448;-69
2022/09/04 03:00:14;;;;;;;5.83;5.07;;;21.40;69.20;;;;;;5074779;28;20433;-69
2022/09/04 03:02:47;;;;;;;4.87;4.47;;;21.40;69.00;;;;;;5074189;28;20475;-70
2022/09/04 03:05:20;;;;;;;6.13;5.20;;;21.40;68.80;;;;;;5073344;28;20484;-70
2022/09/04 03:07:56;;;;;;;5.57;5.00;;;21.40;68.90;;;;;;5076675;28;20437;-70
2022/09/04 03:10:29;;;;;;;5.53;4.93;;;21.40;69.20;;;;;;5076535;28;20429;-70
2022/09/04 03:13:03;;;;;;;5.70;5.20;;;21.40;69.50;;;;;;5076743;28;20551;-70
2022/09/04 03:15:39;;;;;;;5.80;5.30;;;21.40;69.30;;;;;;5076708;28;20429;-70
2022/09/04 03:18:14;;;;;;;6.33;5.73;;;21.30;69.00;;;;;;5076703;28;20429;-70
2022/09/04 03:20:47;;;;;;;5.73;5.23;;;21.30;68.60;;;;;;5076163;28;20903;-70
2022/09/04 03:23:19;;;;;;;5.40;5.00;;;21.30;68.70;;;;;;5076353;28;20472;-70
2022/09/04 03:26:15;;;;;;;6.20;5.70;;;21.20;68.50;;;;;;5076562;28;20468;-70
2022/09/04 03:28:51;;;;;;;5.53;5.13;;;21.20;68.50;;;;;;5076064;28;20435;-69
2022/09/04 03:31:28;;;;;;;7.30;4.70;;;21.20;68.50;;;;;;5076320;28;20433;-70
2022/09/04 03:34:05;;;;;;;6.00;5.40;;;21.10;68.30;;;;;;5076027;28;20461;-70
2022/09/04 03:36:42;;;;;;;5.70;5.20;;;21.10;68.40;;;;;;5076062;28;20429;-70
2022/09/04 03:39:18;;;;;;;5.57;5.07;;;21.10;68.40;;;;;;5076415;28;20467;-70
2022/09/04 03:41:52;;;;;;;4.87;4.47;;;21.00;68.60;;;;;;5076213;28;20436;-70
2022/09/04 03:44:30;;;;;;;5.20;4.70;;;21.00;68.70;;;;;;5075932;28;20432;-70
2022/09/04 03:47:03;;;;;;;4.67;4.27;;;21.00;69.40;;;;;;5075997;28;20429;-70
2022/09/04 03:49:43;;;;;;;5.73;5.13;;;21.00;69.00;;;;;;5075892;28;20429;-70
2022/09/04 03:52:18;;;;;;;4.97;4.57;;;21.00;69.50;;;;;;5075586;28;20994;-69
2022/09/04 03:55:00;;;;;;;5.03;4.53;;;21.00;69.70;;;;;;5075902;28;20495;-70
2022/09/04 03:58:01;;;;;;;5.20;4.70;;;21.00;69.80;;;;;;5075888;28;20444;-70
2022/09/04 04:00:36;;;;;;;5.20;4.80;;;20.90;69.90;;;;;;5075780;28;20433;-70
2022/09/04 04:03:17;;;;;;;5.23;4.73;;;20.90;70.00;;;;;;5075585;28;20479;-69
2022/09/04 04:05:55;;;;;;;5.43;5.00;;;20.90;70.10;;;;;;5075765;28;20428;-69
2022/09/04 04:08:34;;;;;;;5.77;5.30;;;20.80;69.90;;;;;;5075566;28;20436;-69
2022/09/04 04:11:15;;;;;;;4.80;4.37;;;20.80;69.70;;;;;;5075219;28;20916;-69
2022/09/04 04:13:59;;;;;;;6.80;6.23;;;20.80;69.80;;;;;;5075097;28;20890;-70
2022/09/04 04:16:39;;;;;;;7.67;6.97;;;20.80;69.60;;;;;;5075220;28;20935;-70
2022/09/04 04:19:19;;;;;;;7.73;6.70;;;20.80;70.10;;;;;;5074431;28;20447;-69
2022/09/04 04:21:59;;;;;;;8.17;7.47;;;20.70;70.00;;;;;;5075231;28;20841;-70
2022/09/04 04:24:58;;;;;;;7.53;6.93;;;20.70;70.00;;;;;;5075309;28;20445;-69
2022/09/04 04:27:41;;;;;;;8.63;7.93;;;20.70;70.10;;;;;;5075107;28;20437;-69
2022/09/04 04:30:11;;;;;;;9.30;8.40;;;20.70;70.20;;;;;;5075202;28;20445;-69
2022/09/04 04:32:55;;;;;;;10.23;9.33;;;20.60;70.20;;;;;;5074941;28;20486;-69
2022/09/04 04:35:34;;;;;;;10.50;9.50;;;20.50;70.10;;;;;;5074705;28;20465;-69
2022/09/04 04:38:11;;;;;;;9.27;8.33;;;20.50;70.20;;;;;;5074661;28;20483;-69
2022/09/04 04:40:58;;;;;;;10.47;9.47;;;20.50;70.20;;;;;;5074533;28;20985;-69
2022/09/04 04:43:35;;;;;;;11.77;10.57;;;20.40;70.00;;;;;;5074827;28;20530;-69
2022/09/04 04:46:11;;;;;;;12.33;11.23;;;20.40;70.20;;;;;;5074998;28;20429;-69
2022/09/04 04:49:06;;;;;;;12.00;10.97;;;20.40;70.40;;;;;;5074548;28;20951;-69
2022/09/04 04:51:58;;;;;;;13.37;12.27;;;20.40;70.60;;;;;;5074353;28;20853;-69
2022/09/04 04:54:43;;;;;;;12.50;11.40;;;20.30;71.50;;;;;;5074538;28;20465;-68
2022/09/04 04:57:25;;;;;;;14.30;12.90;;;20.30;71.00;;;;;;5074702;28;20799;-68
2022/09/04 05:00:05;;;;;;;14.93;13.30;;;20.30;71.60;;;;;;5074551;28;20759;-68
2022/09/04 05:02:38;;;;;;;13.87;12.67;;;20.30;72.00;;;;;;5074257;28;20888;-68
2022/09/04 05:05:13;;;;;;;12.70;11.60;;;20.30;72.60;;;;;;5074451;28;20432;-68
2022/09/04 05:07:51;;;;;;;12.83;11.73;;;20.30;72.30;;;;;;5074362;28;20432;-69
2022/09/04 05:10:21;;;;;;;11.77;10.77;;;20.30;72.30;;;;;;5074297;28;20447;-69
2022/09/04 05:12:58;;;;;;;13.73;12.53;;;20.30;72.30;;;;;;5074252;28;20499;-68
2022/09/04 05:15:34;;;;;;;13.63;12.47;;;20.20;72.10;;;;;;5074120;28;20484;-68
2022/09/04 05:18:09;;;;;;;13.80;12.50;;;20.20;72.00;;;;;;5074200;28;20440;-68
2022/09/04 05:20:43;;;;;;;15.27;13.90;;;20.20;72.20;;;;;;5074058;28;20433;-68
2022/09/04 05:23:24;;;;;;;16.60;15.00;;;20.20;72.40;;;;;;5074326;28;20487;-68
2022/09/04 05:25:57;;;;;;;14.90;13.60;;;20.20;73.40;;;;;;5074052;28;20425;-69
2022/09/04 05:28:31;;;;;;;15.37;13.80;;;20.20;73.90;;;;;;5074249;28;20470;-69
2022/09/04 05:31:08;;;;;;;16.97;15.17;;;20.30;74.50;;;;;;5074072;28;20442;-69
2022/09/04 05:33:41;;;;;;;14.03;12.63;;;20.30;74.80;;;;;;5074637;28;20465;-69
2022/09/04 05:36:17;;;;;;;12.93;11.60;;;20.30;74.70;;;;;;5073899;28;21050;-69
2022/09/04 05:38:57;;;;;;;13.87;12.57;;;20.20;74.20;;;;;;5073738;28;20460;-69
2022/09/04 05:41:39;;;;;;;13.67;12.47;;;20.30;74.20;;;;;;5073768;28;20908;-69
2022/09/04 05:44:33;;;;;;;12.67;11.57;;;20.30;74.20;;;;;;5073800;28;20505;-69
2022/09/04 05:47:09;;;;;;;12.53;11.23;;;20.30;74.30;;;;;;5073680;28;20939;-69
2022/09/04 05:49:54;;;;;;;10.83;9.90;;;20.30;74.20;;;;;;5074320;28;20432;-69
2022/09/04 05:52:37;;;;;;;12.20;11.20;;;20.40;74.20;;;;;;5073867;28;20471;-69
2022/09/04 05:55:41;;;;;;;14.57;12.97;;;20.40;73.50;;;;;;5073673;28;20504;-69
2022/09/04 05:58:32;;;;;;;11.20;10.20;;;20.40;74.50;;;;;;5073605;28;20429;-69
2022/09/04 06:01:12;;;;;;;9.37;8.57;;;20.50;74.20;;;;;;5073619;28;20445;-68
2022/09/04 06:03:57;;;;;;;13.07;11.87;;;20.50;73.70;;;;;;5073633;28;20548;-69
2022/09/04 06:06:34;;;;;;;14.30;12.80;;;20.60;74.20;;;;;;5073278;28;20924;-69
2022/09/04 06:09:20;;;;;;;13.13;11.83;;;20.60;73.50;;;;;;5073928;28;20429;-69
2022/09/04 06:12:02;;;;;;;11.70;10.60;;;20.60;74.30;;;;;;5073468;28;20441;-69
2022/09/04 06:14:45;;;;;;;13.50;12.10;;;20.70;74.30;;;;;;5073143;28;20425;-69
2022/09/04 06:17:31;;;;;;;11.63;10.53;;;20.70;74.70;;;;;;5073529;28;20440;-69
2022/09/04 06:20:18;;;;;;;16.37;13.23;;;20.80;73.90;;;;;;5073501;28;20436;-69
2022/09/04 06:22:59;;;;;;;14.70;13.03;;;20.80;74.40;;;;;;5073425;28;20472;-69
2022/09/04 06:25:48;;;;;;;15.03;13.40;;;20.90;74.80;;;;;;5073195;28;20440;-69
2022/09/04 06:28:35;;;;;;;14.83;12.27;;;21.00;74.80;;;;;;5072963;28;20940;-68
2022/09/04 06:31:10;;;;;;;12.37;11.07;;;21.00;75.00;;;;;;5072995;28;20429;-69
2022/09/04 06:33:52;;;;;;;12.57;10.30;;;21.10;74.90;;;;;;5073410;28;20498;-69
2022/09/04 06:36:45;;;;;;;14.00;11.93;;;21.20;74.40;;;;;;5073234;28;20464;-69
2022/09/04 06:39:32;;;;;;;13.17;11.77;;;21.20;73.00;;;;;;5073503;28;20437;-69
2022/09/04 06:42:15;;;;;;;17.87;12.90;;;21.30;74.70;;;;;;5076225;28;20433;-69
2022/09/04 06:44:55;;;;;;;13.23;12.03;;;21.40;74.80;;;;;;5077276;28;20433;-69
2022/09/04 06:47:31;;;;;;;12.97;10.93;;;21.50;74.40;;;;;;5077250;28;20429;-69
2022/09/04 06:50:21;;;;;;;11.43;9.63;;;21.50;74.50;;;;;;5078341;28;20432;-69
2022/09/04 06:53:05;;;;;;;11.90;10.30;;;21.60;73.80;;;;;;5077523;28;20484;-69
2022/09/04 06:55:39;;;;;;;10.70;9.70;;;21.80;73.60;;;;;;5077603;28;20468;-69
2022/09/04 06:58:42;;;;;;;13.83;10.20;;;21.90;72.90;;;;;;5077535;28;20440;-69
2022/09/04 07:01:15;;;;;;;12.27;10.93;;;22.00;72.10;;;;;;5077600;28;20804;-69
2022/09/04 07:03:54;;;;;;;16.07;10.43;;;22.10;71.80;;;;;;5077289;28;20477;-69
2022/09/04 07:06:29;;;;;;;8.30;7.60;;;22.20;71.80;;;;;;5077283;28;20436;-69
2022/09/04 07:09:05;;;;;;;8.80;8.00;;;22.20;71.70;;;;;;5077075;28;20527;-69
2022/09/04 07:11:55;;;;;;;9.63;8.00;;;22.30;70.70;;;;;;5077161;28;20527;-69
2022/09/04 07:14:39;;;;;;;4.90;4.50;;;22.40;70.70;;;;;;5077254;28;20421;-69
2022/09/04 07:17:17;;;;;;;4.80;4.40;;;22.40;69.90;;;;;;5076831;28;20451;-69
2022/09/04 07:20:09;;;;;;;4.57;4.23;;;22.40;69.50;;;;;;5076883;28;20429;-69
2022/09/04 07:22:50;;;;;;;4.70;4.30;;;22.50;69.70;;;;;;5076375;28;20473;-69
2022/09/04 07:25:22;;;;;;;8.53;4.30;;;22.40;69.20;;;;;;5076428;28;20446;-69
2022/09/04 07:28:04;;;;;;;7.40;4.20;;;22.50;69.40;;;;;;5076563;28;20425;-68
2022/09/04 07:30:38;;;;;;;4.73;4.17;;;22.60;62.30;;;;;;5076337;28;20429;-67
2022/09/04 07:33:12;;;;;;;3.90;3.40;;;22.70;61.60;;;;;;5076259;28;20824;-68
2022/09/04 07:35:44;;;;;;;3.20;2.90;;;22.80;61.10;;;;;;5076265;28;20465;-68
2022/09/04 07:38:19;;;;;;;4.57;3.27;;;23.00;61.50;;;;;;5076338;28;20456;-69
2022/09/04 07:40:52;;;;;;;3.53;3.23;;;23.20;61.70;;;;;;5076562;28;20525;-72
2022/09/04 07:43:22;;;;;;;3.57;2.80;;;23.40;61.60;;;;;;5076228;28;20512;-68
2022/09/04 07:46:04;;;;;;;4.93;3.30;;;23.60;61.70;;;;;;5076138;28;20520;-68
2022/09/04 07:48:38;;;;;;;5.50;3.57;;;23.80;61.20;;;;;;5076251;28;20528;-68
2022/09/04 07:51:09;;;;;;;4.60;2.93;;;23.90;60.70;;;;;;5076347;28;20448;-68
2022/09/04 07:54:00;;;;;;;2.40;2.20;;;24.10;60.10;;;;;;5074817;28;20526;-68
2022/09/04 07:56:41;;;;;;;3.30;3.00;;;24.30;59.70;;;;;;5076122;28;20469;-69
2022/09/04 07:59:53;;;;;;;6.30;2.90;;;24.50;59.50;;;;;;5075722;28;20920;-69
2022/09/04 08:02:31;;;;;;;2.70;2.50;;;24.60;58.80;;;;;;5064678;28;20488;-69
2022/09/04 08:05:17;;;;;;;2.80;2.60;;;24.70;58.10;;;;;;5076576;28;20452;-69
2022/09/04 08:08:03;;;;;;;2.73;2.50;;;24.90;58.10;;;;;;5075616;28;20923;-69
2022/09/04 08:10:34;;;;;;;6.17;2.43;;;25.10;58.00;;;;;;5075990;28;20429;-69
2022/09/04 08:13:28;;;;;;;3.33;2.50;;;25.20;58.20;;;;;;5075650;28;20475;-69
2022/09/04 08:16:06;;;;;;;3.20;2.27;;;25.30;57.80;;;;;;5075677;28;20548;-68
2022/09/04 08:18:54;;;;;;;2.93;2.00;;;25.40;57.30;;;;;;5075426;28;20433;-68
2022/09/04 08:21:28;;;;;;;2.13;2.00;;;25.50;57.00;;;;;;5075418;28;20433;-68
2022/09/04 08:24:28;;;;;;;5.60;2.00;;;25.60;56.30;;;;;;5075249;28;21044;-69
2022/09/04 08:27:08;;;;;;;3.07;1.87;;;25.80;56.30;;;;;;5075824;28;20440;-69
2022/09/04 08:29:56;;;;;;;2.30;2.00;;;26.00;56.50;;;;;;5075484;28;20425;-69
2022/09/04 08:32:44;;;;;;;4.57;2.07;;;26.00;55.50;;;;;;5075479;28;20461;-69
2022/09/04 08:35:22;;;;;;;2.10;1.40;;;26.20;55.50;;;;;;5075408;28;20771;-69
2022/09/04 08:38:08;;;;;;;2.30;1.90;;;26.30;54.80;;;;;;5075124;28;20461;-69
2022/09/04 08:41:13;;;;;;;7.87;2.77;;;26.50;54.40;;;;;;5075016;28;20438;-69
2022/09/04 08:44:09;;;;;;;2.37;1.97;;;26.70;54.40;;;;;;5075046;28;20465;-69
2022/09/04 08:46:54;;;;;;;2.30;2.10;;;26.90;53.80;;;;;;5074647;28;20806;-69
2022/09/04 08:49:58;;;;;;;3.90;1.60;;;27.10;53.10;;;;;;5074838;28;20434;-69
2022/09/04 08:53:00;;;;;;;2.30;1.80;;;27.10;52.90;;;;;;5059329;28;20495;-69
2022/09/04 08:55:45;;;;;;;1.40;1.30;;;27.30;52.30;;;;;;5074938;28;20435;-68
2022/09/04 08:58:39;;;;;;;4.93;1.77;;;27.50;51.80;;;;;;5075990;28;20445;-69
2022/09/04 09:01:36;;;;;;;2.93;1.70;;;27.80;51.40;;;;;;5075041;28;20441;-69
2022/09/04 09:04:35;;;;;;;1.83;1.30;;;28.10;50.80;;;;;;5074041;28;20854;-69
2022/09/04 09:07:21;;;;;;;1.33;1.23;;;28.40;50.20;;;;;;5074580;28;20978;-68
2022/09/04 09:10:08;;;;;;;2.10;1.40;;;28.70;48.70;;;;;;5074643;28;20434;-69
2022/09/04 09:13:14;;;;;;;3.57;1.90;;;29.00;47.50;;;;;;5074791;28;20472;-68
2022/09/04 09:15:57;;;;;;;2.50;1.93;;;29.30;46.80;;;;;;5074707;28;20476;-70
2022/09/04 09:18:48;;;;;;;1.50;1.30;;;29.50;45.40;;;;;;5074463;28;20433;-69
2022/09/04 09:21:30;;;;;;;5.77;1.60;;;29.60;45.70;;;;;;5074315;28;20440;-69
2022/09/04 09:24:47;;;;;;;4.33;1.67;;;29.70;45.20;;;;;;5074228;28;20477;-69
2022/09/04 09:27:41;;;;;;;3.90;1.60;;;29.80;44.70;;;;;;5012141;28;20439;-70
2022/09/04 09:30:14;;;;;;;5.33;1.60;;;30.10;44.50;;;;;;5013068;28;20436;-69
2022/09/04 09:33:19;;;;;;;2.10;0.97;;;30.40;43.70;;;;;;5054367;28;20539;-71
2022/09/04 09:36:10;;;;;;;1.50;1.30;;;30.70;42.70;;;;;;5074999;28;20487;-72
2022/09/04 09:39:16;;;;;;;2.53;1.50;;;31.00;41.80;;;;;;5074225;28;20518;-70
2022/09/04 09:42:12;;;;;;;2.53;1.30;;;31.00;41.80;;;;;;5017542;28;20478;-70
2022/09/04 09:45:24;;;;;;;2.20;1.47;;;31.00;41.60;;;;;;5073942;28;20417;-69
2022/09/04 09:48:25;;;;;;;1.60;1.50;;;31.20;41.90;;;;;;5074358;28;20441;-71
2022/09/04 09:51:24;;;;;;;1.97;1.53;;;31.40;41.20;;;;;;5054341;28;20455;-71
2022/09/04 09:54:28;;;;;;;4.20;1.20;;;31.60;40.70;;;;;;5074150;28;20465;-70
2022/09/04 09:57:31;;;;;;;2.50;1.80;;;31.70;41.10;;;;;;5051034;28;20480;-70
2022/09/04 10:00:21;;;;;;;2.03;1.40;;;31.90;40.00;;;;;;5076801;28;20462;-69
2022/09/04 10:03:24;;;;;;;3.17;1.33;;;32.20;39.50;;;;;;5073647;28;20472;-68
2022/09/04 10:06:36;;;;;;;2.60;1.47;;;32.40;39.00;;;;;;5074945;28;20440;-68
2022/09/04 10:09:45;;;;;;;3.17;1.70;;;32.80;38.20;;;;;;5074093;28;20448;-70
2022/09/04 10:12:50;;;;;;;1.80;1.70;;;33.10;37.50;;;;;;5073564;28;20987;-70
2022/09/04 10:16:03;;;;;;;1.93;1.50;;;33.30;36.70;;;;;;5073138;28;20437;-68
2022/09/04 10:18:53;;;;;;;2.23;2.00;;;33.60;36.70;;;;;;5073462;28;20424;-68
2022/09/04 10:21:56;;;;;;;2.97;2.03;;;33.90;35.80;;;;;;5073590;28;20440;-70
2022/09/04 10:25:09;;;;;;;1.80;1.70;;;34.20;35.70;;;;;;5073427;28;20439;-69
2022/09/04 10:28:08;;;;;;;1.77;1.67;;;34.60;35.50;;;;;;5073296;28;20425;-69
2022/09/04 10:30:53;;;;;;;5.77;2.03;;;35.00;33.50;;;;;;5073340;28;20437;-69
2022/09/04 10:33:31;;;;;;;4.07;1.73;;;35.50;33.00;;;;;;5073813;28;20464;-69
2022/09/04 10:36:13;;;;;;;2.00;1.50;;;36.00;31.10;;;;;;5073370;28;20432;-69
2022/09/04 10:42:13;;;;;;;3.00;1.50;;;37.10;29.50;;;;;;5073443;28;20400;-70
2022/09/04 10:44:57;;;;;;;3.07;1.43;;;37.80;29.00;;;;;;5060383;28;20202;-71
2022/09/04 10:47:43;;;;;;;3.88;1.30;;;38.40;27.50;;;;;;5073097;28;20178;-70
2022/09/04 10:51:01;;;;;;;2.72;1.38;;;38.70;27.30;;;;;;5073226;28;20213;-70
2022/09/04 10:54:08;;;;;;;3.08;1.20;;;39.20;26.60;;;;;;4992743;28;20228;-70
2022/09/04 10:56:45;;;;;;;1.90;1.38;;;39.40;25.90;;;;;;5057422;28;20228;-70
2022/09/04 10:59:30;;;;;;;2.17;1.25;;;38.90;26.60;;;;;;5072900;28;20646;-70
2022/09/04 11:02:33;;;;;;;2.40;1.40;;;38.00;27.60;;;;;;5072923;28;20197;-69
2022/09/04 11:05:39;;;;;;;3.70;1.50;;;37.00;28.40;;;;;;5072669;28;20198;-69
2022/09/04 11:08:35;;;;;;;2.53;1.57;;;36.20;29.50;;;;;;5042416;28;20226;-69
2022/09/04 11:11:19;;;;;;;1.70;1.60;;;35.90;29.70;;;;;;5071018;28;20547;-69
2022/09/04 11:14:19;;;;;;;1.80;1.23;;;36.40;29.30;;;;;;5072786;28;20479;-70
2022/09/04 11:17:34;;;;;;;3.93;1.20;;;37.10;28.20;;;;;;5072841;28;20479;-70
2022/09/04 11:20:28;;;;;;;3.10;1.50;;;38.20;27.40;;;;;;5072646;28;20646;-70
2022/09/04 11:23:36;;;;;;;1.92;1.13;;;38.70;26.00;;;;;;5072555;28;20309;-68
2022/09/04 11:26:53;;;;;;;2.08;1.40;;;39.00;25.70;;;;;;5022867;28;20442;-70
2022/09/04 11:29:40;;;;;;;2.53;1.33;;;38.70;25.60;;;;;;5072572;28;20201;-70
2022/09/04 11:32:23;;;;;;;2.97;2.77;;;37.80;26.20;;;;;;5076250;28;20226;-69
2022/09/04 11:35:29;;;;;;;3.00;2.80;;;36.90;27.70;;;;;;5076266;28;20190;-66
2022/09/04 11:38:11;;;;;;;4.03;2.10;;;36.20;28.30;;;;;;5061820;28;20226;-68
2022/09/04 11:41:02;;;;;;;1.93;1.50;;;35.80;28.70;;;;;;5055927;28;20433;-69
2022/09/04 11:43:54;;;;;;;3.73;1.80;;;35.40;28.90;;;;;;5054776;28;20471;-68
2022/09/04 11:46:41;;;;;;;3.30;1.90;;;35.00;29.60;;;;;;5054447;28;20429;-68
2022/09/04 11:49:24;;;;;;;1.73;1.53;;;34.50;30.00;;;;;;5054639;28;20441;-68
2022/09/04 11:52:12;;;;;;;2.60;1.23;;;35.00;30.00;;;;;;5054407;28;20461;-65
2022/09/04 11:55:32;;;;;;;1.73;1.63;;;35.50;29.30;;;;;;5054338;28;20517;-68
2022/09/04 11:58:24;;;;;;;1.53;1.43;;;35.30;29.30;;;;;;5054824;28;20551;-68
2022/09/04 12:01:02;;;;;;;3.07;1.90;;;35.00;29.80;;;;;;5053155;28;20457;-68
2022/09/04 12:04:02;;;;;;;4.03;1.50;;;34.70;29.70;;;;;;5055736;28;20839;-68
2022/09/04 12:06:49;;;;;;;1.40;1.30;;;34.60;29.80;;;;;;5061803;28;20429;-68
2022/09/04 12:09:53;;;;;;;3.23;1.67;;;34.80;29.40;;;;;;5071214;28;20482;-68
2022/09/04 12:13:05;;;;;;;2.83;1.60;;;35.40;28.30;;;;;;5072744;28;20839;-68
2022/09/04 12:16:04;;;;;;;2.30;1.60;;;36.20;27.80;;;;;;5075742;28;20479;-68
2022/09/04 12:19:03;;;;;;;1.90;1.43;;;36.80;26.50;;;;;;5075819;28;20491;-68
2022/09/04 12:21:56;;;;;;;2.20;1.30;;;37.50;25.90;;;;;;5075427;28;20206;-68
2022/09/04 12:25:03;;;;;;;1.40;1.25;;;38.50;24.80;;;;;;5075819;28;20186;-68
2022/09/04 12:28:15;;;;;;;2.35;1.60;;;39.80;23.90;;;;;;5075377;28;20653;-68
2022/09/04 12:31:00;;;;;;;2.08;1.30;;;40.90;22.90;;;;;;5075383;28;20190;-69
2022/09/04 12:33:47;;;;;;;2.47;1.77;;;40.90;21.50;;;;;;5074925;28;20222;-69
2022/09/04 12:36:36;;;;;;;3.65;2.05;;;40.70;21.50;;;;;;5074715;28;20281;-69
2022/09/04 12:39:41;;;;;;;2.10;1.90;;;40.20;21.40;;;;;;5073956;28;20537;-69
2022/09/04 12:42:15;;;;;;;1.52;1.40;;;40.00;21.80;;;;;;5074963;28;20683;-69
2022/09/04 12:44:56;;;;;;;2.42;2.22;;;39.60;21.90;;;;;;5074898;28;20190;-69
2022/09/04 12:47:33;;;;;;;2.30;2.10;;;39.80;21.30;;;;;;5074521;28;20659;-69
2022/09/04 12:50:16;;;;;;;1.88;1.77;;;39.80;21.40;;;;;;5074608;28;20217;-69
2022/09/04 12:52:55;;;;;;;4.65;1.70;;;39.60;21.40;;;;;;5074728;28;20222;-69
2022/09/04 12:55:29;;;;;;;4.18;1.77;;;39.60;21.90;;;;;;5074794;28;20193;-69
2022/09/04 12:58:06;;;;;;;2.28;1.50;;;39.60;21.50;;;;;;5075443;28;20211;-69
2022/09/04 13:00:40;;;;;;;3.63;1.70;;;39.00;21.40;;;;;;5074655;28;20198;-69
2022/09/04 13:03:16;;;;;;;2.38;1.50;;;38.30;22.40;;;;;;5074523;28;20288;-69
2022/09/04 13:06:00;;;;;;;2.25;1.58;;;38.00;23.00;;;;;;5074423;28;20194;-69
2022/09/04 13:08:41;;;;;;;1.57;1.47;;;37.90;23.50;;;;;;5074523;28;20182;-69
2022/09/04 13:11:20;;;;;;;1.83;1.73;;;38.20;23.70;;;;;;5074461;28;20599;-68
2022/09/04 13:13:55;;;;;;;2.15;1.65;;;39.10;22.10;;;;;;5074185;28;20229;-68
2022/09/04 13:16:31;;;;;;;3.65;2.22;;;39.60;21.60;;;;;;5074432;28;20185;-68
2022/09/04 13:19:08;;;;;;;2.83;1.90;;;40.20;21.10;;;;;;5074793;28;20182;-68
2022/09/04 13:21:50;;;;;;;2.67;1.75;;;40.60;20.70;;;;;;5074425;28;20196;-68
2022/09/04 13:24:26;;;;;;;3.97;1.83;;;40.50;20.40;;;;;;5073978;28;20621;-69
2022/09/04 13:27:09;;;;;;;2.42;1.92;;;40.20;20.20;;;;;;5074205;28;20192;-69
2022/09/04 13:29:49;;;;;;;3.25;2.20;;;39.80;20.90;;;;;;5074541;28;20190;-68
2022/09/04 13:32:40;;;;;;;2.60;2.00;;;39.70;21.00;;;;;;5073984;28;20236;-69
2022/09/04 13:35:16;;;;;;;3.53;2.13;;;39.60;21.30;;;;;;5073858;28;20296;-69
2022/09/04 13:38:01;;;;;;;4.07;1.90;;;39.40;21.90;;;;;;5073391;28;20221;-69
2022/09/04 13:40:43;;;;;;;3.03;1.70;;;40.10;22.50;;;;;;5074200;28;20182;-70
2022/09/04 13:43:36;;;;;;;3.28;1.80;;;41.00;20.00;;;;;;5074021;28;20587;-69
2022/09/04 13:46:07;;;;;;;2.70;1.90;;;41.80;19.00;;;;;;5073764;28;20183;-69
2022/09/04 13:48:41;;;;;;;2.58;2.00;;;42.40;18.40;;;;;;5073862;28;20268;-70
2022/09/04 13:51:11;;;;;;;3.58;2.22;;;42.70;18.20;;;;;;5073844;28;20564;-69
2022/09/04 13:53:54;;;;;;;2.92;1.95;;;43.20;17.70;;;;;;5073768;28;20232;-70
2022/09/04 13:56:28;;;;;;;2.95;1.73;;;43.80;17.50;;;;;;5073451;28;20640;-69
2022/09/04 13:58:59;;;;;;;1.60;1.50;;;44.20;16.90;;;;;;5073437;28;20703;-70
2022/09/04 14:01:28;;;;;;;3.97;1.80;;;44.70;16.60;;;;;;5073620;28;20198;-67
2022/09/04 14:03:59;;;;;;;2.38;1.90;;;45.40;16.60;;;;;;5073532;28;20218;-67
2022/09/04 14:06:29;;;;;;;1.95;1.58;;;45.80;16.00;;;;;;5073532;28;20192;-68
2022/09/04 14:09:02;;;;;;;2.25;1.55;;;46.00;15.40;;;;;;5073312;28;20204;-67
2022/09/04 14:12:01;;;;;;;1.90;1.30;;;46.00;15.70;;;;;;5073439;28;20545;-67